Time;durP1;ratioP1;P1;durP2;ratioP2;P2;SDS_P1;SDS_P2;PMS_P1;PMS_P2;Temp;Humidity;BMP_temperature;BMP_pressure;BME280_temperature;BME280_humidity;BME280_pressure;Samples;Min_cycle;Max_cycle;Signal;HPM_P1;HPM_P2
2021/10/31 00:00:52;;;;;;;12.05;1.83;;;11.10;99.90;;;;;;2103820;28;20123;-74
2021/10/31 00:01:53;;;;;;;8.68;1.65;;;11.10;99.90;;;;;;2102465;28;20025;-73
2021/10/31 00:02:53;;;;;;;11.45;2.22;;;11.10;99.90;;;;;;2096464;28;20553;-75
2021/10/31 00:03:55;;;;;;;11.25;1.75;;;11.10;99.90;;;;;;2095550;28;20021;-74
2021/10/31 00:04:56;;;;;;;14.07;1.80;;;11.10;99.90;;;;;;2095642;28;20099;-74
2021/10/31 00:05:56;;;;;;;10.40;1.95;;;11.10;99.90;;;;;;2097516;28;20574;-73
2021/10/31 00:06:57;;;;;;;11.63;2.05;;;11.20;99.90;;;;;;2102245;28;20032;-73
2021/10/31 00:07:58;;;;;;;13.18;1.83;;;11.20;99.90;;;;;;2103598;28;20527;-73
2021/10/31 00:08:59;;;;;;;10.20;1.90;;;11.20;99.90;;;;;;2103862;28;20025;-74
2021/10/31 00:10:00;;;;;;;7.38;1.40;;;11.20;99.90;;;;;;2091642;28;20107;-74
2021/10/31 00:11:01;;;;;;;10.25;1.70;;;11.20;99.90;;;;;;2099642;28;20027;-74
2021/10/31 00:12:04;;;;;;;14.02;2.00;;;11.20;99.90;;;;;;2089052;28;20024;-73
2021/10/31 00:13:05;;;;;;;14.93;1.95;;;11.20;99.90;;;;;;2084644;28;20034;-74
2021/10/31 00:14:06;;;;;;;11.05;2.20;;;11.30;99.90;;;;;;2097146;28;20016;-74
2021/10/31 00:15:07;;;;;;;8.60;1.67;;;11.30;99.90;;;;;;2096866;28;20082;-73
2021/10/31 00:16:08;;;;;;;11.32;1.90;;;11.30;99.90;;;;;;2098578;28;20025;-73
2021/10/31 00:17:08;;;;;;;13.93;1.42;;;11.30;99.90;;;;;;2097989;28;20095;-74
2021/10/31 00:18:09;;;;;;;11.95;1.98;;;11.40;99.90;;;;;;2105612;28;20032;-73
2021/10/31 00:19:11;;;;;;;12.45;1.90;;;11.40;99.90;;;;;;2098262;28;20032;-73
2021/10/31 00:20:11;;;;;;;11.07;2.05;;;11.40;99.90;;;;;;2096929;28;20019;-73
2021/10/31 00:21:12;;;;;;;13.75;2.33;;;11.40;99.90;;;;;;2097233;28;20029;-72
2021/10/31 00:22:14;;;;;;;12.82;2.00;;;11.40;99.90;;;;;;2097694;28;20484;-74
2021/10/31 00:23:14;;;;;;;12.30;1.67;;;11.40;99.90;;;;;;2099473;28;20028;-73
2021/10/31 00:24:15;;;;;;;7.97;1.58;;;11.40;99.90;;;;;;2099703;28;20029;-74
2021/10/31 00:25:16;;;;;;;9.88;1.55;;;11.50;99.90;;;;;;2087522;28;20533;-74
2021/10/31 00:26:16;;;;;;;11.57;1.63;;;11.50;99.90;;;;;;2095216;28;20020;-74
2021/10/31 00:27:17;;;;;;;11.15;1.98;;;11.50;99.90;;;;;;2097279;28;20029;-73
2021/10/31 00:28:18;;;;;;;12.32;1.83;;;11.50;99.90;;;;;;2098441;28;20091;-73
2021/10/31 00:29:19;;;;;;;13.48;1.77;;;11.50;99.90;;;;;;2096991;28;20016;-74
2021/10/31 00:30:20;;;;;;;9.10;1.90;;;11.50;99.90;;;;;;2087506;28;20041;-73
2021/10/31 00:31:20;;;;;;;15.82;1.83;;;11.50;99.90;;;;;;2090903;28;20031;-74
2021/10/31 00:32:21;;;;;;;7.60;1.27;;;11.60;99.90;;;;;;2095223;28;20020;-73
2021/10/31 00:33:22;;;;;;;12.07;1.80;;;11.60;99.90;;;;;;2094762;28;20028;-72
2021/10/31 00:34:22;;;;;;;13.88;1.88;;;11.60;99.90;;;;;;2096901;28;20028;-73
2021/10/31 00:35:23;;;;;;;9.77;1.45;;;11.70;99.90;;;;;;2097275;28;20441;-73
2021/10/31 00:36:24;;;;;;;11.40;1.60;;;11.60;99.90;;;;;;2097667;28;20104;-73
2021/10/31 00:37:24;;;;;;;10.68;2.00;;;11.60;99.90;;;;;;2097286;28;20412;-73
2021/10/31 00:38:25;;;;;;;11.13;1.58;;;11.60;99.90;;;;;;2098214;28;20032;-75
2021/10/31 00:39:26;;;;;;;12.95;1.85;;;11.60;99.90;;;;;;2098158;28;20055;-73
2021/10/31 00:40:27;;;;;;;10.55;1.70;;;11.60;99.90;;;;;;2097678;28;20120;-74
2021/10/31 00:41:28;;;;;;;17.65;1.90;;;11.60;99.90;;;;;;2098370;28;20032;-73
2021/10/31 00:42:28;;;;;;;10.40;1.73;;;11.70;99.90;;;;;;2097560;28;20090;-73
2021/10/31 00:43:29;;;;;;;9.48;2.10;;;11.70;99.90;;;;;;2093156;28;20059;-75
2021/10/31 00:44:30;;;;;;;8.88;1.80;;;11.70;99.90;;;;;;2098135;28;20013;-74
2021/10/31 00:45:30;;;;;;;9.27;1.83;;;11.70;99.90;;;;;;2083564;28;20738;-73
2021/10/31 00:46:31;;;;;;;13.70;1.88;;;11.70;99.90;;;;;;2085225;28;20017;-74
2021/10/31 00:47:32;;;;;;;8.63;1.58;;;11.70;99.90;;;;;;2082038;28;20532;-72
2021/10/31 00:48:33;;;;;;;12.85;2.15;;;11.70;99.90;;;;;;2098412;28;20047;-74
2021/10/31 00:49:33;;;;;;;9.05;1.55;;;11.70;99.90;;;;;;2097664;28;20499;-74
2021/10/31 00:50:34;;;;;;;10.75;1.75;;;11.70;99.90;;;;;;2092662;28;20028;-73
2021/10/31 00:51:35;;;;;;;9.73;1.77;;;11.70;99.90;;;;;;2085408;28;20029;-74
2021/10/31 00:52:36;;;;;;;11.60;1.88;;;11.70;99.90;;;;;;2094302;28;20582;-74
2021/10/31 00:53:39;;;;;;;11.20;1.40;;;11.60;99.90;;;;;;2089966;28;20040;-73
2021/10/31 00:54:40;;;;;;;16.50;2.72;;;11.70;99.90;;;;;;2093594;28;20021;-74
2021/10/31 00:55:40;;;;;;;7.63;1.65;;;11.70;99.90;;;;;;2098680;28;20062;-74
2021/10/31 00:56:41;;;;;;;8.27;1.58;;;11.70;99.90;;;;;;2098622;28;20020;-73
2021/10/31 00:57:43;;;;;;;11.20;1.58;;;11.70;99.90;;;;;;2098585;28;20029;-76
2021/10/31 00:58:44;;;;;;;14.43;1.70;;;11.70;99.90;;;;;;2096332;28;20024;-75
2021/10/31 00:59:44;;;;;;;8.50;1.60;;;11.70;99.90;;;;;;2085853;28;20581;-73
2021/10/31 01:00:47;;;;;;;9.82;2.35;;;11.70;99.90;;;;;;2089228;28;20067;-73
2021/10/31 01:01:50;;;;;;;12.45;1.90;;;11.70;99.90;;;;;;2089129;28;20044;-74
2021/10/31 01:02:51;;;;;;;13.05;1.88;;;11.70;99.90;;;;;;2089080;28;20086;-75
2021/10/31 01:03:52;;;;;;;6.25;1.52;;;11.70;99.90;;;;;;2092613;28;20070;-73
2021/10/31 01:04:58;;;;;;;8.85;1.83;;;11.70;99.90;;;;;;2085322;28;20059;-74
2021/10/31 01:06:29;;;;;;;13.10;2.50;;;11.80;99.90;;;;;;2089101;28;20025;-74
2021/10/31 01:07:57;;;;;;;15.57;2.33;;;11.70;99.90;;;;;;2097806;28;20024;-73
2021/10/31 01:08:57;;;;;;;8.75;1.60;;;11.80;99.90;;;;;;2098913;28;20750;-74
2021/10/31 01:09:58;;;;;;;6.75;1.60;;;11.80;99.90;;;;;;2098650;28;20035;-73
2021/10/31 01:11:40;;;;;;;9.35;1.77;;;11.80;99.90;;;;;;2090174;28;20123;-74
2021/10/31 01:13:05;;;;;;;11.73;1.80;;;11.80;99.90;;;;;;2064739;28;20027;-73
2021/10/31 01:14:23;;;;;;;11.65;1.70;;;11.80;99.90;;;;;;2092831;28;20511;-74
2021/10/31 01:15:26;;;;;;;8.45;1.73;;;11.90;99.90;;;;;;2091645;28;20148;-73
2021/10/31 01:16:46;;;;;;;9.38;1.90;;;11.90;99.90;;;;;;2098666;28;20027;-73
2021/10/31 01:18:08;;;;;;;11.38;1.67;;;11.90;99.90;;;;;;2093196;28;20017;-74
2021/10/31 01:19:49;;;;;;;11.25;1.52;;;12.00;99.90;;;;;;2093772;28;20119;-73
2021/10/31 01:21:10;;;;;;;10.88;1.90;;;12.00;99.90;;;;;;2078572;28;20029;-74
2021/10/31 01:22:34;;;;;;;11.35;2.08;;;11.90;99.90;;;;;;2075864;28;20032;-74
2021/10/31 01:23:47;;;;;;;13.13;2.50;;;12.00;99.90;;;;;;2075474;28;20030;-75
2021/10/31 01:25:06;;;;;;;10.57;1.70;;;12.00;99.90;;;;;;2072246;28;20026;-74
2021/10/31 01:26:07;;;;;;;11.82;1.73;;;12.10;99.90;;;;;;2074404;28;20059;-73
2021/10/31 01:27:14;;;;;;;11.38;2.20;;;12.10;99.90;;;;;;2098923;28;20086;-73
2021/10/31 01:28:27;;;;;;;11.50;1.70;;;12.10;99.90;;;;;;2098184;28;20016;-75
2021/10/31 01:29:36;;;;;;;6.05;1.33;;;12.10;99.90;;;;;;2090850;28;20036;-73
2021/10/31 01:31:21;;;;;;;9.15;1.75;;;12.10;99.90;;;;;;2096457;28;20025;-73
2021/10/31 01:32:25;;;;;;;9.00;2.15;;;12.20;99.90;;;;;;2065616;28;20494;-72
2021/10/31 01:33:43;;;;;;;9.10;2.15;;;12.20;99.90;;;;;;2089336;28;20052;-73
2021/10/31 01:35:13;;;;;;;11.05;1.75;;;12.20;99.90;;;;;;2089719;28;20515;-73
2021/10/31 01:36:54;;;;;;;12.57;1.92;;;12.20;99.90;;;;;;2080778;28;20037;-73
2021/10/31 01:38:31;;;;;;;12.45;2.08;;;12.20;99.90;;;;;;2072148;28;20041;-73
2021/10/31 01:39:56;;;;;;;10.07;1.75;;;12.20;99.90;;;;;;2097314;28;20028;-74
2021/10/31 01:41:09;;;;;;;14.43;2.03;;;12.30;99.90;;;;;;2091599;28;20025;-74
2021/10/31 01:42:22;;;;;;;9.57;1.63;;;12.30;99.90;;;;;;2090904;28;20021;-75
2021/10/31 01:43:23;;;;;;;11.80;2.80;;;12.30;99.90;;;;;;2094172;28;20025;-73
2021/10/31 01:44:58;;;;;;;9.90;1.90;;;12.30;99.90;;;;;;2092051;28;20037;-73
2021/10/31 01:46:05;;;;;;;12.40;1.80;;;12.40;99.90;;;;;;2084666;28;20128;-74
2021/10/31 01:47:17;;;;;;;12.18;2.10;;;12.30;99.90;;;;;;2089530;28;20048;-73
2021/10/31 01:48:50;;;;;;;13.25;2.05;;;12.40;99.90;;;;;;2093698;28;20028;-74
2021/10/31 01:50:19;;;;;;;7.75;1.67;;;12.40;99.90;;;;;;2094995;28;20051;-75
2021/10/31 01:51:38;;;;;;;9.50;1.88;;;12.40;99.90;;;;;;2093189;28;20024;-77
2021/10/31 01:52:48;;;;;;;11.13;1.67;;;12.40;99.90;;;;;;2086790;28;20130;-75
2021/10/31 01:53:53;;;;;;;8.93;1.60;;;12.40;99.90;;;;;;2093940;28;20032;-75
2021/10/31 01:55:02;;;;;;;16.70;1.90;;;12.40;99.90;;;;;;2094143;28;20518;-75
2021/10/31 01:56:10;;;;;;;13.10;2.00;;;12.40;99.90;;;;;;2098090;28;20099;-75
2021/10/31 01:57:18;;;;;;;15.93;2.45;;;12.30;99.90;;;;;;2098429;28;20035;-78
2021/10/31 01:58:22;;;;;;;12.88;2.05;;;12.30;99.90;;;;;;2097487;28;20535;-76
2021/10/31 01:59:33;;;;;;;8.43;1.90;;;12.30;99.90;;;;;;2089520;28;20569;-75
2021/10/31 02:00:34;;;;;;;10.52;1.70;;;12.20;99.90;;;;;;2083856;28;20029;-75
2021/10/31 02:01:38;;;;;;;14.68;1.95;;;12.20;99.90;;;;;;2093436;28;20149;-75
2021/10/31 02:02:42;;;;;;;10.45;1.75;;;12.20;99.90;;;;;;2097606;28;20020;-75
2021/10/31 02:03:47;;;;;;;18.42;1.92;;;12.20;99.90;;;;;;2089562;28;20732;-75
2021/10/31 02:04:50;;;;;;;20.50;2.08;;;12.20;99.90;;;;;;2093971;28;20024;-77
2021/10/31 02:05:53;;;;;;;12.75;1.83;;;12.20;99.90;;;;;;2097493;28;20021;-76
2021/10/31 02:06:54;;;;;;;10.20;1.95;;;12.20;99.90;;;;;;2092237;28;20013;-74
2021/10/31 02:08:01;;;;;;;10.35;1.88;;;12.20;99.90;;;;;;2092852;28;20048;-75
2021/10/31 02:09:02;;;;;;;11.10;2.08;;;12.20;99.90;;;;;;2089668;28;20017;-75
2021/10/31 02:10:04;;;;;;;17.65;2.35;;;12.20;99.90;;;;;;2092984;28;20033;-76
2021/10/31 02:11:06;;;;;;;12.27;1.60;;;12.20;99.90;;;;;;2087941;28;20508;-74
2021/10/31 02:12:14;;;;;;;7.78;2.03;;;12.20;99.90;;;;;;2088870;28;20663;-76
2021/10/31 02:13:15;;;;;;;11.25;2.40;;;12.20;99.90;;;;;;2097333;28;20099;-74
2021/10/31 02:14:20;;;;;;;13.00;1.83;;;12.10;99.90;;;;;;2098077;28;20032;-75
2021/10/31 02:15:22;;;;;;;8.15;1.60;;;12.20;99.90;;;;;;2095892;28;20067;-73
2021/10/31 02:16:25;;;;;;;13.80;1.67;;;12.10;99.90;;;;;;2097244;28;20020;-74
2021/10/31 02:17:28;;;;;;;7.18;1.70;;;12.20;99.90;;;;;;2098091;28;20081;-74
2021/10/31 02:18:29;;;;;;;12.65;1.85;;;12.10;99.90;;;;;;2095010;28;20104;-74
2021/10/31 02:19:38;;;;;;;10.10;1.90;;;12.10;99.90;;;;;;2097857;28;20025;-75
2021/10/31 02:20:42;;;;;;;9.65;1.55;;;12.10;99.90;;;;;;2097026;28;20082;-77
2021/10/31 02:21:47;;;;;;;14.38;2.67;;;12.10;99.90;;;;;;2089789;28;20500;-77
2021/10/31 02:22:59;;;;;;;15.65;2.00;;;12.10;99.90;;;;;;2091563;28;20030;-74
2021/10/31 02:24:02;;;;;;;12.57;1.88;;;12.10;99.90;;;;;;2095846;28;20012;-75
2021/10/31 02:25:04;;;;;;;14.70;2.55;;;12.10;99.90;;;;;;2086936;28;20029;-75
2021/10/31 02:26:05;;;;;;;8.40;1.90;;;12.10;99.90;;;;;;2089134;28;20558;-76
2021/10/31 02:27:21;;;;;;;7.60;1.77;;;12.10;99.90;;;;;;2087809;28;20041;-76
2021/10/31 02:28:22;;;;;;;14.63;2.00;;;12.20;99.90;;;;;;2099830;28;20020;-76
2021/10/31 02:29:22;;;;;;;16.40;1.90;;;12.20;99.90;;;;;;2094397;28;20021;-74
2021/10/31 02:30:23;;;;;;;10.90;1.77;;;12.20;99.90;;;;;;2097492;28;20020;-76
2021/10/31 02:31:25;;;;;;;11.00;1.70;;;12.20;99.90;;;;;;2097181;28;20446;-75
2021/10/31 02:32:29;;;;;;;11.82;1.50;;;12.20;99.90;;;;;;2097679;28;20488;-75
2021/10/31 02:33:30;;;;;;;8.65;1.83;;;12.20;99.90;;;;;;2091978;28;20024;-76
2021/10/31 02:34:31;;;;;;;12.13;1.70;;;12.30;99.90;;;;;;2095822;28;20108;-74
2021/10/31 02:35:32;;;;;;;13.05;1.67;;;12.30;99.90;;;;;;2088910;28;20134;-76
2021/10/31 02:36:35;;;;;;;12.15;1.58;;;12.30;99.90;;;;;;2092185;28;20393;-75
2021/10/31 02:37:39;;;;;;;11.27;2.03;;;12.30;99.90;;;;;;2097889;28;20178;-75
2021/10/31 02:38:40;;;;;;;12.93;2.30;;;12.30;99.90;;;;;;2094647;28;20025;-73
2021/10/31 02:39:41;;;;;;;14.07;1.88;;;12.30;99.90;;;;;;2089487;28;20034;-74
2021/10/31 02:40:42;;;;;;;13.38;1.60;;;12.40;99.90;;;;;;2098145;28;20023;-74
2021/10/31 02:41:43;;;;;;;10.10;1.83;;;12.40;99.90;;;;;;2098012;28;20025;-74
2021/10/31 02:42:44;;;;;;;11.13;1.50;;;12.40;99.90;;;;;;2094987;28;20899;-75
2021/10/31 02:43:46;;;;;;;12.13;1.83;;;12.40;99.90;;;;;;2094648;28;20124;-74
2021/10/31 02:44:47;;;;;;;16.67;1.85;;;12.50;99.90;;;;;;2098378;28;20020;-74
2021/10/31 02:45:48;;;;;;;10.65;1.60;;;12.40;99.90;;;;;;2097184;28;20028;-74
2021/10/31 02:46:49;;;;;;;11.63;1.35;;;12.50;99.90;;;;;;2085976;28;20084;-74
2021/10/31 02:47:56;;;;;;;9.43;1.63;;;12.50;99.90;;;;;;2088532;28;20052;-76
2021/10/31 02:48:57;;;;;;;8.70;1.33;;;12.50;99.90;;;;;;2097405;28;20020;-74
2021/10/31 02:49:59;;;;;;;11.25;1.45;;;12.50;99.90;;;;;;2097611;28;20024;-75
2021/10/31 02:51:12;;;;;;;11.07;1.77;;;12.50;99.90;;;;;;2095972;28;20074;-75
2021/10/31 02:52:42;;;;;;;14.05;1.73;;;12.50;99.90;;;;;;2092953;28;20920;-74
2021/10/31 02:54:05;;;;;;;8.73;1.30;;;12.60;99.90;;;;;;2085587;28;20120;-76
2021/10/31 02:55:35;;;;;;;8.73;2.10;;;12.60;99.90;;;;;;2096396;28;20457;-73
2021/10/31 02:56:45;;;;;;;10.77;1.60;;;12.60;99.90;;;;;;2094222;28;20024;-74
2021/10/31 02:58:04;;;;;;;9.82;1.52;;;12.60;99.90;;;;;;2090039;28;20029;-74
2021/10/31 02:59:16;;;;;;;10.18;1.55;;;12.60;99.90;;;;;;2091238;28;20386;-75
2021/10/31 03:00:18;;;;;;;12.60;1.73;;;12.70;99.90;;;;;;2090170;28;20052;-74
2021/10/31 03:01:19;;;;;;;7.53;1.40;;;12.70;99.90;;;;;;2087912;28;20431;-75
2021/10/31 03:02:21;;;;;;;9.23;1.75;;;12.70;99.90;;;;;;2092982;28;20027;-73
2021/10/31 03:03:22;;;;;;;6.60;1.88;;;12.70;99.90;;;;;;2096257;28;20067;-75
2021/10/31 03:04:23;;;;;;;8.98;1.60;;;12.70;99.90;;;;;;2097325;28;20120;-75
2021/10/31 03:05:25;;;;;;;6.45;1.50;;;12.70;99.90;;;;;;2097216;28;20703;-74
2021/10/31 03:06:25;;;;;;;10.18;1.55;;;12.70;99.90;;;;;;2096905;28;20029;-74
2021/10/31 03:07:27;;;;;;;10.60;1.40;;;12.70;99.90;;;;;;2088857;28;20116;-74
2021/10/31 03:08:29;;;;;;;11.98;1.75;;;12.70;99.90;;;;;;2086862;28;20036;-74
2021/10/31 03:09:29;;;;;;;14.00;1.73;;;12.70;99.90;;;;;;2091683;28;20032;-73
2021/10/31 03:10:30;;;;;;;12.15;1.80;;;12.70;99.90;;;;;;2100112;28;20031;-73
2021/10/31 03:11:31;;;;;;;13.07;2.10;;;12.70;99.90;;;;;;2088510;28;20437;-75
2021/10/31 03:12:32;;;;;;;10.75;1.58;;;12.70;99.90;;;;;;2097492;28;20028;-77
2021/10/31 03:13:33;;;;;;;10.13;1.85;;;12.80;99.90;;;;;;2096947;28;20047;-75
2021/10/31 03:14:34;;;;;;;9.00;1.90;;;12.80;99.90;;;;;;2095672;28;20028;-74
2021/10/31 03:15:35;;;;;;;14.32;1.58;;;12.80;99.90;;;;;;2097182;28;20263;-75
2021/10/31 03:16:36;;;;;;;13.57;1.75;;;12.80;99.90;;;;;;2095681;28;20060;-75
2021/10/31 03:17:36;;;;;;;9.32;1.25;;;12.80;99.90;;;;;;2090956;28;20059;-76
2021/10/31 03:18:37;;;;;;;12.73;1.33;;;12.80;99.90;;;;;;2097718;28;20025;-74
2021/10/31 03:19:38;;;;;;;10.70;1.75;;;12.80;99.90;;;;;;2097425;28;20090;-75
2021/10/31 03:20:39;;;;;;;13.45;2.53;;;12.80;99.90;;;;;;2096918;28;20107;-73
2021/10/31 03:21:39;;;;;;;12.35;1.70;;;12.80;99.90;;;;;;2097257;28;20451;-75
2021/10/31 03:22:40;;;;;;;11.75;1.70;;;12.80;99.90;;;;;;2093530;28;20035;-74
2021/10/31 03:23:41;;;;;;;9.90;1.60;;;12.80;99.90;;;;;;2097190;28;20095;-75
2021/10/31 03:24:42;;;;;;;9.10;1.50;;;12.80;99.90;;;;;;2094590;28;20068;-75
2021/10/31 03:25:43;;;;;;;13.88;2.33;;;12.80;99.90;;;;;;2089001;28;20021;-74
2021/10/31 03:26:43;;;;;;;7.45;1.42;;;12.70;99.90;;;;;;2087962;28;20032;-74
2021/10/31 03:27:44;;;;;;;7.05;1.70;;;12.70;99.90;;;;;;2097340;28;20107;-75
2021/10/31 03:28:45;;;;;;;7.32;1.33;;;12.80;99.90;;;;;;2088827;28;20021;-74
2021/10/31 03:29:46;;;;;;;9.75;1.92;;;12.80;99.90;;;;;;2091337;28;20595;-74
2021/10/31 03:30:48;;;;;;;8.70;1.83;;;12.80;99.90;;;;;;2097258;28;20071;-74
2021/10/31 03:31:50;;;;;;;9.20;1.40;;;12.80;99.90;;;;;;2097785;28;20033;-74
2021/10/31 03:32:50;;;;;;;17.10;1.70;;;12.80;99.90;;;;;;2097768;28;20058;-74
2021/10/31 03:33:51;;;;;;;23.35;2.00;;;12.80;99.90;;;;;;2088966;28;21131;-74
2021/10/31 03:34:53;;;;;;;12.27;1.80;;;12.80;99.90;;;;;;2080938;28;20029;-75
2021/10/31 03:35:54;;;;;;;18.58;2.00;;;12.80;99.90;;;;;;2085706;28;20032;-75
2021/10/31 03:36:55;;;;;;;12.30;1.45;;;12.80;99.90;;;;;;2091034;28;20036;-75
2021/10/31 03:37:56;;;;;;;12.70;2.00;;;12.80;99.90;;;;;;2094112;28;20047;-74
2021/10/31 03:38:57;;;;;;;14.25;2.20;;;12.90;99.90;;;;;;2087441;28;20029;-74
2021/10/31 03:39:57;;;;;;;9.88;1.98;;;12.90;99.90;;;;;;2088132;28;20532;-74
2021/10/31 03:40:58;;;;;;;6.15;1.73;;;12.90;99.90;;;;;;2086067;28;20116;-75
2021/10/31 03:41:59;;;;;;;11.65;1.80;;;12.90;99.90;;;;;;2088963;28;20048;-75
2021/10/31 03:43:00;;;;;;;8.23;1.20;;;12.90;99.90;;;;;;2085519;28;20028;-74
2021/10/31 03:44:02;;;;;;;11.43;1.80;;;13.00;99.90;;;;;;2089089;28;20028;-75
2021/10/31 03:45:06;;;;;;;10.30;2.30;;;13.00;99.90;;;;;;2096793;28;20472;-74
2021/10/31 03:46:07;;;;;;;11.13;1.65;;;12.90;99.90;;;;;;2097764;28;20504;-75
2021/10/31 03:47:09;;;;;;;8.73;1.40;;;13.00;99.90;;;;;;2091261;28;20232;-74
2021/10/31 03:48:10;;;;;;;12.63;2.13;;;13.00;99.90;;;;;;2095925;28;20028;-75
2021/10/31 03:49:13;;;;;;;11.43;1.88;;;13.00;99.90;;;;;;2093582;28;20400;-75
2021/10/31 03:50:18;;;;;;;17.92;2.55;;;13.00;99.90;;;;;;2096290;28;20044;-75
2021/10/31 03:51:19;;;;;;;11.60;1.50;;;13.00;99.90;;;;;;2098742;28;20074;-75
2021/10/31 03:52:19;;;;;;;9.55;1.45;;;13.00;99.90;;;;;;2098404;28;20465;-76
2021/10/31 03:53:20;;;;;;;15.45;1.92;;;13.00;99.90;;;;;;2084129;28;20087;-74
2021/10/31 03:54:21;;;;;;;8.65;1.40;;;13.00;99.90;;;;;;2097369;28;20047;-76
2021/10/31 03:55:22;;;;;;;11.40;2.10;;;13.00;99.90;;;;;;2092962;28;20056;-76
2021/10/31 03:56:22;;;;;;;10.60;1.55;;;13.00;99.90;;;;;;2094768;28;20556;-75
2021/10/31 03:57:23;;;;;;;8.68;1.17;;;13.00;99.90;;;;;;2099025;28;20511;-75
2021/10/31 03:58:24;;;;;;;6.15;1.63;;;13.00;99.90;;;;;;2088287;28;20025;-74
2021/10/31 03:59:24;;;;;;;12.73;1.75;;;13.00;99.90;;;;;;2090933;28;20079;-75
2021/10/31 04:00:25;;;;;;;14.50;2.20;;;13.00;99.90;;;;;;2098671;28;20504;-76
2021/10/31 04:01:28;;;;;;;10.45;1.45;;;13.00;99.90;;;;;;2101663;28;20044;-77
2021/10/31 04:02:29;;;;;;;12.15;2.47;;;13.00;99.90;;;;;;2099061;28;20013;-76
2021/10/31 04:03:30;;;;;;;12.63;1.80;;;13.00;99.90;;;;;;2099009;28;20016;-75
2021/10/31 04:04:31;;;;;;;7.07;1.25;;;13.00;99.90;;;;;;2098764;28;20039;-74
2021/10/31 04:05:31;;;;;;;12.43;1.38;;;13.00;99.90;;;;;;2097274;28;20423;-75
2021/10/31 04:06:32;;;;;;;10.73;2.42;;;13.00;99.90;;;;;;2092868;28;20061;-76
2021/10/31 04:07:33;;;;;;;8.77;1.38;;;13.00;99.90;;;;;;2091508;28;20442;-76
2021/10/31 04:08:34;;;;;;;13.35;1.70;;;13.00;99.90;;;;;;2098849;28;20023;-75
2021/10/31 04:09:34;;;;;;;10.48;1.52;;;13.00;99.90;;;;;;2099639;28;20407;-76
2021/10/31 04:10:35;;;;;;;5.57;1.33;;;13.00;99.90;;;;;;2096013;28;20032;-76
2021/10/31 04:11:36;;;;;;;10.13;1.58;;;13.00;99.90;;;;;;2092027;28;20025;-73
2021/10/31 04:12:37;;;;;;;6.72;1.85;;;13.00;99.90;;;;;;2093756;28;20042;-74
2021/10/31 04:13:37;;;;;;;10.73;1.85;;;13.00;99.90;;;;;;2095925;28;20025;-74
2021/10/31 04:14:38;;;;;;;11.18;1.88;;;13.00;99.90;;;;;;2099498;28;20060;-73
2021/10/31 04:15:42;;;;;;;14.02;2.05;;;13.00;99.90;;;;;;2090618;28;20021;-77
2021/10/31 04:16:43;;;;;;;7.97;1.15;;;13.00;99.90;;;;;;2091745;28;20075;-75
2021/10/31 04:17:44;;;;;;;15.77;1.83;;;13.00;99.90;;;;;;2098464;28;20050;-74
2021/10/31 04:18:44;;;;;;;14.48;1.70;;;13.10;99.90;;;;;;2088533;28;20032;-75
2021/10/31 04:19:45;;;;;;;9.23;1.45;;;13.10;99.90;;;;;;2089944;28;20029;-75
2021/10/31 04:20:46;;;;;;;12.20;1.70;;;13.10;99.90;;;;;;2095795;28;20020;-75
2021/10/31 04:21:46;;;;;;;14.68;1.63;;;13.10;99.90;;;;;;2097086;28;20115;-75
2021/10/31 04:22:48;;;;;;;15.05;2.00;;;13.10;99.90;;;;;;2091962;28;20517;-76
2021/10/31 04:23:48;;;;;;;14.23;1.67;;;13.10;99.90;;;;;;2098521;28;20052;-76
2021/10/31 04:24:49;;;;;;;7.18;1.63;;;13.10;99.90;;;;;;2098273;28;20574;-74
2021/10/31 04:25:50;;;;;;;13.32;1.73;;;13.10;99.90;;;;;;2098492;28;20024;-75
2021/10/31 04:26:53;;;;;;;7.75;1.30;;;13.10;99.90;;;;;;2085524;28;20026;-74
2021/10/31 04:27:54;;;;;;;8.55;1.55;;;13.10;99.90;;;;;;2089094;28;20025;-74
2021/10/31 04:28:54;;;;;;;8.70;1.20;;;13.10;99.90;;;;;;2088587;28;20013;-78
2021/10/31 04:29:55;;;;;;;8.93;1.48;;;13.10;99.90;;;;;;2089978;28;20504;-74
2021/10/31 04:30:56;;;;;;;6.97;1.40;;;13.10;99.90;;;;;;2098444;28;20066;-74
2021/10/31 04:31:57;;;;;;;8.73;1.30;;;13.10;99.90;;;;;;2098355;28;20483;-75
2021/10/31 04:32:57;;;;;;;6.63;1.48;;;13.10;99.90;;;;;;2096812;28;20055;-75
2021/10/31 04:33:58;;;;;;;8.77;1.65;;;13.10;99.90;;;;;;2091760;28;20070;-76
2021/10/31 04:34:59;;;;;;;9.98;1.50;;;13.10;99.90;;;;;;2089922;28;20021;-75
2021/10/31 04:35:59;;;;;;;12.40;2.28;;;13.10;99.90;;;;;;2098229;28;20557;-75
2021/10/31 04:37:02;;;;;;;9.18;1.30;;;13.10;99.90;;;;;;2098031;28;20047;-75
2021/10/31 04:38:11;;;;;;;;;;;13.20;99.90;;;;;;2090364;28;20037;-73
2021/10/31 04:39:12;;;;;;;13.57;1.63;;;13.20;99.90;;;;;;2098502;28;20269;-73
2021/10/31 04:40:16;;;;;;;8.75;1.90;;;13.20;99.90;;;;;;2098969;28;20412;-76
2021/10/31 04:41:17;;;;;;;7.10;1.35;;;13.20;99.90;;;;;;2098578;28;20025;-74
2021/10/31 04:42:18;;;;;;;9.63;1.90;;;13.20;99.90;;;;;;2090241;28;20370;-73
2021/10/31 04:43:22;;;;;;;11.35;1.85;;;13.20;99.90;;;;;;2098498;28;20027;-74
2021/10/31 04:44:23;;;;;;;11.52;1.67;;;13.20;99.90;;;;;;2095159;28;20519;-75
2021/10/31 04:45:24;;;;;;;9.88;1.45;;;13.30;99.90;;;;;;2090349;28;20025;-75
2021/10/31 04:46:24;;;;;;;9.45;1.88;;;13.30;99.90;;;;;;2095284;28;20100;-74
2021/10/31 04:47:25;;;;;;;17.25;2.60;;;13.30;99.90;;;;;;2090156;28;20457;-75
2021/10/31 04:48:26;;;;;;;8.90;1.95;;;13.30;99.90;;;;;;2088345;28;20025;-75
2021/10/31 04:49:27;;;;;;;9.60;1.65;;;13.30;99.90;;;;;;2098194;28;20090;-74
2021/10/31 04:50:28;;;;;;;13.02;1.83;;;13.40;99.90;;;;;;2098429;28;20024;-74
2021/10/31 04:51:29;;;;;;;13.40;1.60;;;13.40;99.90;;;;;;2090015;28;20681;-75
2021/10/31 04:52:31;;;;;;;12.38;1.50;;;13.50;99.90;;;;;;2081783;28;20033;-74
2021/10/31 04:53:33;;;;;;;12.65;1.65;;;13.40;99.90;;;;;;2098320;28;20534;-75
2021/10/31 04:54:33;;;;;;;8.25;1.92;;;13.50;99.90;;;;;;2099051;28;20488;-75
2021/10/31 04:55:39;;;;;;;11.93;1.90;;;13.50;99.90;;;;;;2097340;28;20199;-75
2021/10/31 04:56:39;;;;;;;11.25;1.80;;;13.50;99.90;;;;;;2098092;28;20622;-75
2021/10/31 04:57:40;;;;;;;16.27;2.13;;;13.50;99.90;;;;;;2098441;28;20029;-75
2021/10/31 04:58:41;;;;;;;12.65;1.55;;;13.50;99.90;;;;;;2090648;28;20086;-75
2021/10/31 04:59:41;;;;;;;12.00;2.25;;;13.60;99.90;;;;;;2092857;28;20033;-75
2021/10/31 05:00:42;;;;;;;11.95;1.85;;;13.60;99.90;;;;;;2090937;28;20048;-76
2021/10/31 05:01:45;;;;;;;11.48;1.80;;;13.60;99.90;;;;;;2084096;28;20049;-75
2021/10/31 05:02:45;;;;;;;17.15;1.55;;;13.60;99.90;;;;;;2088521;28;20439;-74
2021/10/31 05:03:47;;;;;;;15.00;2.13;;;13.70;99.90;;;;;;2088914;28;20025;-75
2021/10/31 05:04:47;;;;;;;10.63;1.80;;;13.60;99.90;;;;;;2090290;28;20018;-75
2021/10/31 05:05:48;;;;;;;14.88;1.90;;;13.60;99.90;;;;;;2090049;28;20037;-75
2021/10/31 05:06:49;;;;;;;14.30;2.10;;;13.70;99.90;;;;;;2081314;28;20084;-75
2021/10/31 05:07:52;;;;;;;12.30;2.28;;;13.70;99.90;;;;;;2080142;28;20025;-75
2021/10/31 05:08:53;;;;;;;9.98;2.00;;;13.70;99.90;;;;;;2081137;28;20529;-75
2021/10/31 05:09:54;;;;;;;12.93;1.83;;;13.70;99.90;;;;;;2089875;28;20024;-75
2021/10/31 05:10:55;;;;;;;13.05;1.98;;;13.70;99.90;;;;;;2090725;28;20067;-75
2021/10/31 05:11:56;;;;;;;12.10;1.60;;;13.70;99.90;;;;;;2085445;28;20021;-74
2021/10/31 05:12:57;;;;;;;12.65;1.95;;;13.80;99.90;;;;;;2083204;28;20410;-75
2021/10/31 05:13:58;;;;;;;17.50;1.88;;;13.80;99.90;;;;;;2096786;28;20108;-76
2021/10/31 05:14:58;;;;;;;13.75;1.95;;;13.80;99.90;;;;;;2087129;28;20032;-75
2021/10/31 05:15:59;;;;;;;15.45;2.22;;;13.80;99.90;;;;;;2081880;28;20033;-74
2021/10/31 05:17:00;;;;;;;12.85;2.03;;;13.80;99.90;;;;;;2081305;28;20048;-74
2021/10/31 05:18:01;;;;;;;10.15;2.05;;;13.80;99.90;;;;;;2089757;28;20108;-75
2021/10/31 05:19:10;;;;;;;14.37;2.00;;;13.80;99.90;;;;;;2090287;28;20025;-74
2021/10/31 05:20:12;;;;;;;12.50;1.50;;;13.80;99.90;;;;;;2086794;28;20326;-74
2021/10/31 05:21:12;;;;;;;13.38;2.08;;;13.80;99.90;;;;;;2082746;28;20037;-74
2021/10/31 05:22:13;;;;;;;5.28;1.30;;;13.80;99.90;;;;;;2098179;28;20027;-75
2021/10/31 05:23:14;;;;;;;12.48;1.98;;;13.80;99.90;;;;;;2098265;28;20025;-75
2021/10/31 05:24:15;;;;;;;12.85;1.73;;;13.90;99.90;;;;;;2090000;28;20043;-76
2021/10/31 05:25:15;;;;;;;12.65;2.20;;;13.90;99.90;;;;;;2088087;28;20028;-75
2021/10/31 05:26:16;;;;;;;15.95;2.28;;;13.90;99.90;;;;;;2082817;28;20026;-74
2021/10/31 05:27:17;;;;;;;14.82;1.70;;;13.90;99.90;;;;;;2085904;28;20029;-74
2021/10/31 05:28:18;;;;;;;10.02;1.70;;;13.90;99.90;;;;;;2089815;28;20017;-75
2021/10/31 05:29:18;;;;;;;10.15;1.73;;;13.90;99.90;;;;;;2090581;28;20087;-75
2021/10/31 05:30:19;;;;;;;10.15;1.60;;;13.90;99.90;;;;;;2089601;28;20051;-73
2021/10/31 05:31:20;;;;;;;11.98;1.75;;;13.90;99.90;;;;;;2088130;28;20723;-74